FFT4966 KLAS-KCLE
Flight info
| Callsign | FFT4966 |
|---|---|
| Flight time | N/A |
| Altitude | 37000 |
| Route | GIDGT3 TUKRR DVC J146 IOW OBK BENJO BRWNZ4 |
| Aircraft | A20N/M-SDE2E3FGHIJ1RWXY/LB1 |
Departure
| Time | 2026-04-30 20:58 |
|---|---|
| Airport | Harry Reid International Airport (KLAS) |
Arrival
| Time | N/A |
|---|---|
| Airport | Cleveland Hopkins International Airport (KCLE) |
| Time | Latitude | Longitude | Altitude | Speed | Heading |
|---|---|---|---|---|---|
| 2026-04-30 20:24 | 36.08322 | -115.13512 | 2068 ft | 0 kts | 234° |
| 2026-04-30 20:41 | 36.08330 | -115.13498 | 2067 ft | 2 kts | 234° |
| 2026-04-30 20:42 | 36.08339 | -115.13483 | 2067 ft | 2 kts | 234° |
| 2026-04-30 20:42 | 36.08347 | -115.13470 | 2066 ft | 0 kts | 234° |
| 2026-04-30 20:42 | 36.08376 | -115.13453 | 2065 ft | 2 kts | 166° |
| 2026-04-30 20:43 | 36.08390 | -115.13460 | 2065 ft | 0 kts | 138° |
| 2026-04-30 20:43 | 36.08395 | -115.13467 | 2065 ft | 0 kts | 134° |
| 2026-04-30 20:48 | 36.08394 | -115.13467 | 2065 ft | 0 kts | 134° |
| 2026-04-30 20:48 | 36.08388 | -115.13458 | 2065 ft | 2 kts | 134° |
| 2026-04-30 20:48 | 36.08374 | -115.13441 | 2065 ft | 3 kts | 134° |
| 2026-04-30 20:48 | 36.08351 | -115.13412 | 2065 ft | 5 kts | 134° |
| 2026-04-30 20:49 | 36.08315 | -115.13380 | 2065 ft | 6 kts | 159° |
| 2026-04-30 20:49 | 36.08264 | -115.13375 | 2066 ft | 7 kts | 180° |
| 2026-04-30 20:49 | 36.08202 | -115.13375 | 2067 ft | 9 kts | 180° |
| 2026-04-30 20:50 | 36.08086 | -115.13376 | 2070 ft | 7 kts | 180° |
| 2026-04-30 20:50 | 36.08022 | -115.13377 | 2071 ft | 10 kts | 181° |
| 2026-04-30 20:50 | 36.07935 | -115.13377 | 2073 ft | 13 kts | 180° |
| 2026-04-30 20:50 | 36.07841 | -115.13377 | 2075 ft | 12 kts | 179° |
| 2026-04-30 20:51 | 36.07767 | -115.13385 | 2077 ft | 9 kts | 219° |
| 2026-04-30 20:51 | 36.07753 | -115.13545 | 2081 ft | 12 kts | 270° |
| 2026-04-30 20:51 | 36.07755 | -115.13675 | 2085 ft | 15 kts | 270° |
| 2026-04-30 20:52 | 36.07754 | -115.13822 | 2089 ft | 17 kts | 270° |
| 2026-04-30 20:52 | 36.07754 | -115.13996 | 2094 ft | 20 kts | 270° |
| 2026-04-30 20:52 | 36.07755 | -115.14374 | 2105 ft | 19 kts | 275° |
| 2026-04-30 20:53 | 36.07766 | -115.14543 | 2111 ft | 18 kts | 275° |
| 2026-04-30 20:53 | 36.07778 | -115.14712 | 2116 ft | 19 kts | 275° |
| 2026-04-30 20:53 | 36.07790 | -115.14887 | 2120 ft | 20 kts | 275° |
| 2026-04-30 20:54 | 36.07804 | -115.15255 | 2134 ft | 20 kts | 271° |
| 2026-04-30 20:54 | 36.07804 | -115.15436 | 2140 ft | 20 kts | 270° |
| 2026-04-30 20:54 | 36.07804 | -115.15618 | 2147 ft | 20 kts | 270° |
| 2026-04-30 20:55 | 36.07802 | -115.15949 | 2158 ft | 16 kts | 269° |
| 2026-04-30 20:55 | 36.07801 | -115.16077 | 2162 ft | 11 kts | 269° |
| 2026-04-30 20:55 | 36.07782 | -115.16125 | 2164 ft | 4 kts | 201° |
| 2026-04-30 20:56 | 36.07745 | -115.16128 | 2165 ft | 0 kts | 179° |
| 2026-04-30 20:56 | 36.07744 | -115.16128 | 2165 ft | 0 kts | 179° |
| 2026-04-30 20:57 | 36.07729 | -115.16128 | 2165 ft | 3 kts | 179° |
| 2026-04-30 20:57 | 36.07691 | -115.16127 | 2166 ft | 6 kts | 180° |
| 2026-04-30 20:57 | 36.07645 | -115.16122 | 2167 ft | 6 kts | 146° |
| 2026-04-30 20:58 | 36.07641 | -115.15410 | 2143 ft | 109 kts | 90° |
| 2026-04-30 20:58 | 36.07642 | -115.14161 | 2104 ft | 172 kts | 88° |
| 2026-04-30 20:58 | 36.07650 | -115.12560 | 2541 ft | 188 kts | 88° |
| 2026-04-30 20:58 | 36.07639 | -115.10849 | 3444 ft | 186 kts | 88° |
| 2026-04-30 20:59 | 36.07626 | -115.07544 | 4566 ft | 201 kts | 87° |
| 2026-04-30 20:59 | 36.07623 | -115.05740 | 4913 ft | 218 kts | 87° |
| 2026-04-30 21:00 | 36.07608 | -115.01532 | 5637 ft | 260 kts | 88° |
| 2026-04-30 21:00 | 36.07583 | -114.96806 | 6850 ft | 280 kts | 88° |
| 2026-04-30 21:01 | 36.07556 | -114.91898 | 8430 ft | 286 kts | 87° |
| 2026-04-30 21:01 | 36.07543 | -114.89376 | 9217 ft | 290 kts | 87° |
| 2026-04-30 21:01 | 36.07518 | -114.84315 | 10688 ft | 302 kts | 86° |
| 2026-04-30 21:02 | 36.07641 | -114.81684 | 11213 ft | 315 kts | 80° |
| 2026-04-30 21:02 | 36.08017 | -114.78996 | 12007 ft | 318 kts | 74° |
| 2026-04-30 21:02 | 36.08555 | -114.76333 | 12844 ft | 320 kts | 72° |
| 2026-04-30 21:02 | 36.09138 | -114.73595 | 13641 ft | 324 kts | 72° |
| 2026-04-30 21:03 | 36.09721 | -114.70862 | 14365 ft | 329 kts | 73° |
| 2026-04-30 21:03 | 36.10300 | -114.68130 | 15052 ft | 334 kts | 73° |
| 2026-04-30 21:03 | 36.10894 | -114.65303 | 15742 ft | 339 kts | 73° |
| 2026-04-30 21:03 | 36.11491 | -114.62457 | 16412 ft | 343 kts | 73° |
| 2026-04-30 21:04 | 36.12090 | -114.59592 | 17057 ft | 348 kts | 73° |
| 2026-04-30 21:04 | 36.12698 | -114.56673 | 17692 ft | 353 kts | 73° |
| 2026-04-30 21:04 | 36.13938 | -114.50698 | 18986 ft | 362 kts | 72° |
| 2026-04-30 21:05 | 36.14560 | -114.47698 | 19639 ft | 365 kts | 72° |
| 2026-04-30 21:05 | 36.15191 | -114.44629 | 20302 ft | 368 kts | 72° |
| 2026-04-30 21:05 | 36.15826 | -114.41536 | 20933 ft | 371 kts | 72° |
| 2026-04-30 21:05 | 36.16458 | -114.38456 | 21545 ft | 374 kts | 72° |
| 2026-04-30 21:06 | 36.17106 | -114.35301 | 22159 ft | 377 kts | 72° |
| 2026-04-30 21:06 | 36.17753 | -114.32136 | 22743 ft | 380 kts | 72° |
| 2026-04-30 21:06 | 36.18406 | -114.28943 | 23319 ft | 383 kts | 72° |
| 2026-04-30 21:06 | 36.19065 | -114.25695 | 23877 ft | 387 kts | 73° |
| 2026-04-30 21:07 | 36.19605 | -114.22399 | 24395 ft | 393 kts | 77° |
| 2026-04-30 21:07 | 36.20023 | -114.19073 | 24905 ft | 396 kts | 78° |
| 2026-04-30 21:07 | 36.20428 | -114.15665 | 25397 ft | 400 kts | 78° |
| 2026-04-30 21:07 | 36.20829 | -114.12259 | 25871 ft | 403 kts | 78° |
| 2026-04-30 21:08 | 36.21239 | -114.08785 | 26338 ft | 406 kts | 78° |
| 2026-04-30 21:08 | 36.21653 | -114.05281 | 26779 ft | 410 kts | 78° |
| 2026-04-30 21:08 | 36.22077 | -114.01695 | 27215 ft | 413 kts | 78° |
| 2026-04-30 21:08 | 36.22507 | -113.98048 | 27636 ft | 417 kts | 78° |
| 2026-04-30 21:09 | 36.22952 | -113.94282 | 28069 ft | 420 kts | 78° |
| 2026-04-30 21:09 | 36.23381 | -113.90637 | 28481 ft | 423 kts | 78° |
| 2026-04-30 21:09 | 36.23808 | -113.87009 | 28880 ft | 426 kts | 78° |
| 2026-04-30 21:09 | 36.24237 | -113.83347 | 29294 ft | 428 kts | 78° |
| 2026-04-30 21:10 | 36.24665 | -113.79678 | 29704 ft | 430 kts | 78° |
| 2026-04-30 21:10 | 36.25101 | -113.75944 | 30086 ft | 433 kts | 79° |
| 2026-04-30 21:10 | 36.25541 | -113.72162 | 30470 ft | 435 kts | 79° |
| 2026-04-30 21:10 | 36.25985 | -113.68334 | 30870 ft | 437 kts | 79° |
| 2026-04-30 21:11 | 36.26420 | -113.64559 | 31215 ft | 439 kts | 79° |
| 2026-04-30 21:11 | 36.26863 | -113.60707 | 31533 ft | 443 kts | 79° |
| 2026-04-30 21:11 | 36.27301 | -113.56890 | 31853 ft | 445 kts | 79° |
| 2026-04-30 21:11 | 36.27747 | -113.52992 | 32217 ft | 446 kts | 79° |
| 2026-04-30 21:12 | 36.28196 | -113.49075 | 32640 ft | 446 kts | 79° |
| 2026-04-30 21:12 | 36.28637 | -113.45202 | 33071 ft | 444 kts | 79° |
| 2026-04-30 21:12 | 36.29077 | -113.41335 | 33459 ft | 444 kts | 80° |
| 2026-04-30 21:12 | 36.29519 | -113.37425 | 33838 ft | 443 kts | 80° |
| 2026-04-30 21:13 | 36.29956 | -113.33542 | 34200 ft | 443 kts | 81° |
| 2026-04-30 21:13 | 36.30400 | -113.29693 | 34526 ft | 443 kts | 79° |
| 2026-04-30 21:13 | 36.30985 | -113.25868 | 34821 ft | 443 kts | 76° |
| 2026-04-30 21:13 | 36.31753 | -113.22113 | 35129 ft | 442 kts | 72° |
| 2026-04-30 21:14 | 36.32715 | -113.18408 | 35434 ft | 441 kts | 68° |
| 2026-04-30 21:14 | 36.33850 | -113.14821 | 35714 ft | 440 kts | 65° |
| 2026-04-30 21:14 | 36.35081 | -113.11311 | 35926 ft | 441 kts | 64° |
| 2026-04-30 21:14 | 36.36356 | -113.07729 | 36142 ft | 443 kts | 64° |
| 2026-04-30 21:15 | 36.37610 | -113.04207 | 36346 ft | 444 kts | 64° |
| 2026-04-30 21:15 | 36.38878 | -113.00625 | 36557 ft | 445 kts | 64° |
| 2026-04-30 21:15 | 36.40121 | -112.97102 | 36737 ft | 446 kts | 64° |
| 2026-04-30 21:15 | 36.41392 | -112.93488 | 36913 ft | 448 kts | 64° |
| 2026-04-30 21:16 | 36.42646 | -112.89912 | 37072 ft | 449 kts | 64° |
| 2026-04-30 21:16 | 36.43909 | -112.86308 | 37092 ft | 451 kts | 64° |
| 2026-04-30 21:16 | 36.46465 | -112.78993 | 37097 ft | 454 kts | 64° |
| 2026-04-30 21:17 | 36.49002 | -112.71706 | 37099 ft | 456 kts | 64° |
| 2026-04-30 21:17 | 36.51553 | -112.64365 | 37105 ft | 457 kts | 64° |
| 2026-04-30 21:18 | 36.54107 | -112.57001 | 37102 ft | 459 kts | 64° |
| 2026-04-30 21:18 | 36.56627 | -112.49719 | 37109 ft | 460 kts | 64° |
| 2026-04-30 21:19 | 36.59146 | -112.42427 | 37111 ft | 460 kts | 65° |
| 2026-04-30 21:19 | 36.61697 | -112.35014 | 37117 ft | 462 kts | 65° |
| 2026-04-30 21:20 | 36.64253 | -112.27570 | 37125 ft | 463 kts | 65° |
| 2026-04-30 21:20 | 36.66797 | -112.20139 | 37121 ft | 463 kts | 65° |
| 2026-04-30 21:21 | 36.69350 | -112.12671 | 37119 ft | 464 kts | 65° |
| 2026-04-30 21:22 | 36.73156 | -112.01496 | 37108 ft | 465 kts | 66° |
| 2026-04-30 21:23 | 36.78245 | -111.86491 | 37097 ft | 467 kts | 66° |
| 2026-04-30 21:23 | 36.82061 | -111.75193 | 37079 ft | 469 kts | 66° |
| 2026-04-30 21:24 | 36.84615 | -111.67602 | 37075 ft | 471 kts | 66° |
| 2026-04-30 21:24 | 36.87266 | -111.60052 | 37072 ft | 471 kts | 64° |
| 2026-04-30 21:25 | 36.91407 | -111.48828 | 37058 ft | 472 kts | 63° |
| 2026-04-30 21:26 | 36.95530 | -111.37537 | 37043 ft | 474 kts | 64° |
| 2026-04-30 21:27 | 36.99653 | -111.26176 | 37047 ft | 475 kts | 64° |
| 2026-04-30 21:27 | 37.02417 | -111.18539 | 37049 ft | 476 kts | 64° |
| 2026-04-30 21:28 | 37.06546 | -111.07078 | 37067 ft | 477 kts | 64° |
| 2026-04-30 21:29 | 37.10708 | -110.95498 | 37069 ft | 480 kts | 64° |
| 2026-04-30 21:30 | 37.17620 | -110.76154 | 37082 ft | 483 kts | 64° |
| 2026-04-30 21:31 | 37.24530 | -110.56686 | 37078 ft | 487 kts | 64° |
| 2026-04-30 21:32 | 37.28684 | -110.44934 | 37071 ft | 489 kts | 64° |
| 2026-04-30 21:32 | 37.31480 | -110.36992 | 37078 ft | 490 kts | 65° |
| 2026-04-30 21:33 | 37.35658 | -110.25080 | 37088 ft | 492 kts | 65° |
| 2026-04-30 21:34 | 37.38445 | -110.17111 | 37089 ft | 493 kts | 65° |
| 2026-04-30 21:34 | 37.42635 | -110.05095 | 37078 ft | 495 kts | 65° |
| 2026-04-30 21:35 | 37.45412 | -109.97094 | 37076 ft | 495 kts | 65° |
| 2026-04-30 21:35 | 37.48199 | -109.89047 | 37085 ft | 495 kts | 65° |
| 2026-04-30 21:36 | 37.50989 | -109.80973 | 37086 ft | 494 kts | 65° |
| 2026-04-30 21:37 | 37.56498 | -109.64967 | 37086 ft | 492 kts | 65° |
| 2026-04-30 21:37 | 37.59240 | -109.56967 | 37085 ft | 490 kts | 65° |
| 2026-04-30 21:38 | 37.61970 | -109.48982 | 37084 ft | 488 kts | 65° |
| 2026-04-30 21:38 | 37.64672 | -109.41058 | 37087 ft | 488 kts | 65° |
| 2026-04-30 21:39 | 37.67372 | -109.33118 | 37090 ft | 488 kts | 66° |
| 2026-04-30 21:39 | 37.70095 | -109.25093 | 37093 ft | 489 kts | 66° |
| 2026-04-30 21:40 | 37.72778 | -109.17143 | 37103 ft | 490 kts | 65° |
| 2026-04-30 21:40 | 37.75478 | -109.09145 | 37100 ft | 490 kts | 66° |
| 2026-04-30 21:41 | 37.78143 | -109.01226 | 37102 ft | 491 kts | 66° |
| 2026-04-30 21:41 | 37.80828 | -108.93214 | 37109 ft | 491 kts | 65° |
| 2026-04-30 21:42 | 37.83587 | -108.85270 | 37122 ft | 492 kts | 64° |
| 2026-04-30 21:42 | 37.86393 | -108.77290 | 37123 ft | 491 kts | 64° |
| 2026-04-30 21:43 | 37.89187 | -108.69298 | 37144 ft | 491 kts | 64° |
| 2026-04-30 21:43 | 37.91952 | -108.61367 | 37149 ft | 492 kts | 64° |
| 2026-04-30 21:44 | 37.94725 | -108.53368 | 37151 ft | 492 kts | 64° |
| 2026-04-30 21:44 | 37.97480 | -108.45408 | 37162 ft | 493 kts | 64° |
| 2026-04-30 21:45 | 38.00250 | -108.37376 | 37182 ft | 492 kts | 64° |
| 2026-04-30 21:45 | 38.02995 | -108.29414 | 37187 ft | 494 kts | 65° |
| 2026-04-30 21:46 | 38.05755 | -108.21365 | 37196 ft | 495 kts | 65° |
| 2026-04-30 21:46 | 38.08507 | -108.13329 | 37205 ft | 496 kts | 65° |
| 2026-04-30 21:47 | 38.11265 | -108.05241 | 37196 ft | 496 kts | 64° |
| 2026-04-30 21:47 | 38.14027 | -107.97137 | 37194 ft | 499 kts | 65° |
| 2026-04-30 21:48 | 38.16774 | -107.89043 | 37189 ft | 499 kts | 64° |
| 2026-04-30 21:48 | 38.19533 | -107.80887 | 37200 ft | 499 kts | 64° |
| 2026-04-30 21:49 | 38.22267 | -107.72786 | 37218 ft | 499 kts | 64° |
| 2026-04-30 21:49 | 38.25014 | -107.64625 | 37217 ft | 499 kts | 64° |
| 2026-04-30 21:50 | 38.27755 | -107.56467 | 37202 ft | 501 kts | 64° |
| 2026-04-30 21:50 | 38.30497 | -107.48268 | 37183 ft | 502 kts | 64° |
| 2026-04-30 21:51 | 38.33218 | -107.40119 | 37191 ft | 503 kts | 64° |
| 2026-04-30 21:51 | 38.35949 | -107.31915 | 37207 ft | 503 kts | 65° |
| 2026-04-30 21:52 | 38.38684 | -107.23680 | 37228 ft | 503 kts | 65° |
| 2026-04-30 21:52 | 38.41402 | -107.15470 | 37241 ft | 505 kts | 65° |
| 2026-04-30 21:53 | 38.44117 | -107.07204 | 37240 ft | 504 kts | 66° |
| 2026-04-30 21:53 | 38.46328 | -106.98647 | 37215 ft | 508 kts | 74° |
| 2026-04-30 21:54 | 38.48056 | -106.89889 | 37177 ft | 508 kts | 76° |
| 2026-04-30 21:54 | 38.49755 | -106.81099 | 37197 ft | 509 kts | 75° |
| 2026-04-30 21:55 | 38.51473 | -106.72347 | 37219 ft | 510 kts | 75° |
| 2026-04-30 21:55 | 38.53199 | -106.63538 | 37218 ft | 511 kts | 75° |
| 2026-04-30 21:56 | 38.54920 | -106.54778 | 37203 ft | 511 kts | 75° |
| 2026-04-30 21:56 | 38.56644 | -106.45936 | 37186 ft | 512 kts | 75° |
| 2026-04-30 21:57 | 38.58362 | -106.37092 | 37150 ft | 513 kts | 75° |
| 2026-04-30 21:57 | 38.60079 | -106.28237 | 37135 ft | 513 kts | 75° |
| 2026-04-30 21:58 | 38.61798 | -106.19315 | 37139 ft | 524 kts | 76° |
| 2026-04-30 21:58 | 38.63563 | -106.10122 | 37145 ft | 532 kts | 76° |
| 2026-04-30 21:59 | 38.65321 | -106.00921 | 37145 ft | 533 kts | 76° |
| 2026-04-30 22:00 | 38.67924 | -105.87167 | 37138 ft | 534 kts | 75° |
| 2026-04-30 22:00 | 38.70533 | -105.73335 | 37097 ft | 534 kts | 75° |
| 2026-04-30 22:01 | 38.72266 | -105.64085 | 37096 ft | 535 kts | 75° |
| 2026-04-30 22:01 | 38.74000 | -105.54810 | 37102 ft | 537 kts | 75° |
| 2026-04-30 22:02 | 38.75706 | -105.45596 | 37110 ft | 536 kts | 75° |
| 2026-04-30 22:02 | 38.77426 | -105.36284 | 37121 ft | 537 kts | 75° |
| 2026-04-30 22:03 | 38.79134 | -105.26998 | 37135 ft | 537 kts | 76° |
| 2026-04-30 22:03 | 38.80843 | -105.17692 | 37136 ft | 536 kts | 76° |
| 2026-04-30 22:04 | 38.82542 | -105.08335 | 37139 ft | 538 kts | 76° |
| 2026-04-30 22:05 | 38.85067 | -104.94370 | 37161 ft | 538 kts | 76° |
| 2026-04-30 22:05 | 38.86758 | -104.84999 | 37164 ft | 538 kts | 76° |
| 2026-04-30 22:06 | 38.88436 | -104.75596 | 37166 ft | 538 kts | 76° |
| 2026-04-30 22:06 | 38.90940 | -104.61517 | 37160 ft | 538 kts | 76° |
| 2026-04-30 22:07 | 38.92601 | -104.52139 | 37162 ft | 538 kts | 75° |
| 2026-04-30 22:07 | 38.94249 | -104.42753 | 37160 ft | 537 kts | 75° |
| 2026-04-30 22:08 | 38.95892 | -104.33389 | 37149 ft | 538 kts | 76° |
| 2026-04-30 22:08 | 38.97525 | -104.24010 | 37128 ft | 538 kts | 76° |
| 2026-04-30 22:09 | 38.99136 | -104.14671 | 37100 ft | 538 kts | 76° |
| 2026-04-30 22:09 | 39.00759 | -104.05268 | 37097 ft | 537 kts | 76° |
| 2026-04-30 22:10 | 39.02399 | -103.95711 | 37092 ft | 536 kts | 75° |
| 2026-04-30 22:10 | 39.04017 | -103.86259 | 37105 ft | 536 kts | 76° |
| 2026-04-30 22:11 | 39.06431 | -103.71998 | 37121 ft | 536 kts | 76° |
| 2026-04-30 22:12 | 39.08036 | -103.62495 | 37135 ft | 535 kts | 76° |
| 2026-04-30 22:12 | 39.09597 | -103.53163 | 37144 ft | 536 kts | 75° |
| 2026-04-30 22:13 | 39.11150 | -103.43845 | 37140 ft | 535 kts | 75° |
| 2026-04-30 22:13 | 39.12701 | -103.34476 | 37137 ft | 535 kts | 76° |
| 2026-04-30 22:14 | 39.14247 | -103.25121 | 37135 ft | 535 kts | 76° |
| 2026-04-30 22:14 | 39.15773 | -103.15824 | 37133 ft | 534 kts | 76° |
| 2026-04-30 22:15 | 39.17298 | -103.06474 | 37132 ft | 535 kts | 77° |
| 2026-04-30 22:15 | 39.18817 | -102.97098 | 37132 ft | 534 kts | 76° |
| 2026-04-30 22:16 | 39.20332 | -102.87717 | 37133 ft | 536 kts | 76° |
| 2026-04-30 22:17 | 39.23336 | -102.68972 | 36998 ft | 535 kts | 76° |
| 2026-04-30 22:17 | 39.24083 | -102.64257 | 37151 ft | 536 kts | 77° |
| 2026-04-30 22:17 | 39.25586 | -102.54775 | 37069 ft | 537 kts | 76° |
| 2026-04-30 22:18 | 39.26358 | -102.49904 | 37242 ft | 537 kts | 76° |
| 2026-04-30 22:18 | 39.27847 | -102.40387 | 37143 ft | 537 kts | 76° |
| 2026-04-30 22:19 | 39.30045 | -102.26302 | 37136 ft | 537 kts | 77° |
| 2026-04-30 22:20 | 39.32248 | -102.12069 | 37132 ft | 538 kts | 77° |
| 2026-04-30 22:20 | 39.34418 | -101.97935 | 37121 ft | 538 kts | 77° |
| 2026-04-30 22:21 | 39.35865 | -101.88414 | 37146 ft | 538 kts | 77° |
| 2026-04-30 22:21 | 39.37287 | -101.79034 | 37150 ft | 536 kts | 77° |
| 2026-04-30 22:22 | 39.38956 | -101.69640 | 37159 ft | 534 kts | 70° |
| 2026-04-30 22:22 | 39.41526 | -101.60658 | 37153 ft | 529 kts | 62° |
| 2026-04-30 22:23 | 39.44519 | -101.51943 | 37142 ft | 528 kts | 61° |
| 2026-04-30 22:23 | 39.47497 | -101.43265 | 37105 ft | 530 kts | 62° |
| 2026-04-30 22:24 | 39.50432 | -101.34552 | 37112 ft | 528 kts | 62° |
| 2026-04-30 22:24 | 39.53346 | -101.25839 | 37126 ft | 528 kts | 63° |
| 2026-04-30 22:25 | 39.56249 | -101.17128 | 37112 ft | 528 kts | 63° |
| 2026-04-30 22:25 | 39.59140 | -101.08433 | 37134 ft | 529 kts | 63° |
| 2026-04-30 22:26 | 39.63475 | -100.95336 | 37126 ft | 528 kts | 63° |
| 2026-04-30 22:27 | 39.66362 | -100.86567 | 37116 ft | 528 kts | 62° |
| 2026-04-30 22:27 | 39.70651 | -100.73513 | 37112 ft | 528 kts | 62° |
| 2026-04-30 22:28 | 39.74955 | -100.60351 | 37122 ft | 527 kts | 62° |
| 2026-04-30 22:29 | 39.80629 | -100.42900 | 37133 ft | 526 kts | 62° |
| 2026-04-30 22:31 | 39.90505 | -100.12255 | 37117 ft | 526 kts | 62° |
| 2026-04-30 22:32 | 39.97491 | -99.90382 | 37119 ft | 525 kts | 63° |
| 2026-04-30 22:33 | 40.04537 | -99.68137 | 37104 ft | 526 kts | 63° |
| 2026-04-30 22:35 | 40.11637 | -99.45521 | 37106 ft | 524 kts | 63° |
| 2026-04-30 22:36 | 40.18568 | -99.23279 | 37105 ft | 524 kts | 63° |
| 2026-04-30 22:37 | 40.24024 | -99.05627 | 37117 ft | 521 kts | 64° |
| 2026-04-30 22:38 | 40.29423 | -98.88057 | 37102 ft | 520 kts | 63° |
| 2026-04-30 22:39 | 40.33438 | -98.74929 | 37101 ft | 521 kts | 63° |
| 2026-04-30 22:40 | 40.41431 | -98.48572 | 36962 ft | 519 kts | 63° |
| 2026-04-30 22:41 | 40.48031 | -98.26619 | 37098 ft | 519 kts | 64° |
| 2026-04-30 22:43 | 40.55887 | -98.00228 | 37196 ft | 517 kts | 64° |
| 2026-04-30 22:43 | 40.58450 | -97.91553 | 37142 ft | 499 kts | 64° |
| 2026-04-30 22:44 | 40.60930 | -97.83147 | 37119 ft | 497 kts | 64° |
| 2026-04-30 22:45 | 40.68377 | -97.57744 | 37120 ft | 495 kts | 64° |
| 2026-04-30 22:47 | 40.75724 | -97.32430 | 37112 ft | 494 kts | 65° |
| 2026-04-30 22:48 | 40.80597 | -97.15496 | 37121 ft | 492 kts | 65° |
| 2026-04-30 22:49 | 40.87809 | -96.90248 | 37132 ft | 491 kts | 64° |
| 2026-04-30 22:51 | 40.93801 | -96.64275 | 37131 ft | 496 kts | 77° |
| 2026-04-30 22:52 | 40.95602 | -96.50732 | 37124 ft | 495 kts | 77° |
| 2026-04-30 22:53 | 40.98030 | -96.32816 | 37113 ft | 494 kts | 77° |
| 2026-04-30 22:53 | 40.99844 | -96.19393 | 37108 ft | 494 kts | 77° |
| 2026-04-30 22:55 | 41.02831 | -95.96983 | 37121 ft | 494 kts | 77° |
| 2026-04-30 22:56 | 41.05191 | -95.79036 | 37121 ft | 494 kts | 77° |
| 2026-04-30 22:57 | 41.08115 | -95.56496 | 37106 ft | 495 kts | 77° |
| 2026-04-30 22:58 | 41.10418 | -95.38468 | 37096 ft | 496 kts | 77° |
| 2026-04-30 22:59 | 41.13825 | -95.11380 | 37092 ft | 495 kts | 78° |